sensor_id;sensor_type;location;lat;lon;timestamp;P1;durP1;ratioP1;P2;durP2;ratioP2
21192;SDS011;10754;51.106;7.164;2022-08-11T00:02:22;2.22;;;1.80;;
21192;SDS011;10754;51.106;7.164;2022-08-11T00:04:50;3.78;;;1.63;;
21192;SDS011;10754;51.106;7.164;2022-08-11T00:07:18;2.40;;;1.85;;
21192;SDS011;10754;51.106;7.164;2022-08-11T00:09:44;1.65;;;1.38;;
21192;SDS011;10754;51.106;7.164;2022-08-11T00:12:14;3.10;;;1.70;;
21192;SDS011;10754;51.106;7.164;2022-08-11T00:14:40;2.15;;;1.75;;
21192;SDS011;10754;51.106;7.164;2022-08-11T00:17:08;2.72;;;1.80;;
21192;SDS011;10754;51.106;7.164;2022-08-11T00:19:37;3.75;;;1.58;;
21192;SDS011;10754;51.106;7.164;2022-08-11T00:22:06;4.47;;;2.00;;
21192;SDS011;10754;51.106;7.164;2022-08-11T00:24:33;5.20;;;1.75;;
21192;SDS011;10754;51.106;7.164;2022-08-11T00:27:01;3.88;;;1.63;;
21192;SDS011;10754;51.106;7.164;2022-08-11T00:29:28;2.22;;;1.98;;
21192;SDS011;10754;51.106;7.164;2022-08-11T00:31:55;2.20;;;1.70;;
21192;SDS011;10754;51.106;7.164;2022-08-11T00:34:23;4.10;;;1.95;;
21192;SDS011;10754;51.106;7.164;2022-08-11T00:36:52;2.58;;;1.70;;
21192;SDS011;10754;51.106;7.164;2022-08-11T00:39:24;2.10;;;1.90;;
21192;SDS011;10754;51.106;7.164;2022-08-11T00:52:49;3.20;;;2.30;;
21192;SDS011;10754;51.106;7.164;2022-08-11T01:12:11;3.22;;;2.92;;
21192;SDS011;10754;51.106;7.164;2022-08-11T01:28:48;3.28;;;2.97;;
21192;SDS011;10754;51.106;7.164;2022-08-11T01:43:21;4.20;;;2.80;;
21192;SDS011;10754;51.106;7.164;2022-08-11T01:46:37;3.65;;;2.70;;
21192;SDS011;10754;51.106;7.164;2022-08-11T01:49:12;5.05;;;3.20;;
21192;SDS011;10754;51.106;7.164;2022-08-11T01:55:17;2.97;;;2.78;;
21192;SDS011;10754;51.106;7.164;2022-08-11T01:57:56;3.35;;;2.95;;
21192;SDS011;10754;51.106;7.164;2022-08-11T02:01:26;2.80;;;2.55;;
21192;SDS011;10754;51.106;7.164;2022-08-11T02:06:44;3.20;;;2.20;;
21192;SDS011;10754;51.106;7.164;2022-08-11T02:15:28;5.78;;;2.58;;
21192;SDS011;10754;51.106;7.164;2022-08-11T02:20:36;4.18;;;2.50;;
21192;SDS011;10754;51.106;7.164;2022-08-11T04:13:56;2.00;;;1.80;;
21192;SDS011;10754;51.106;7.164;2022-08-11T04:20:22;2.60;;;2.10;;
21192;SDS011;10754;51.106;7.164;2022-08-11T04:23:24;2.70;;;1.95;;
21192;SDS011;10754;51.106;7.164;2022-08-11T04:29:17;3.15;;;2.00;;
21192;SDS011;10754;51.106;7.164;2022-08-11T04:40:47;2.47;;;1.67;;
21192;SDS011;10754;51.106;7.164;2022-08-11T04:43:41;3.38;;;1.75;;
21192;SDS011;10754;51.106;7.164;2022-08-11T04:49:27;5.15;;;2.03;;
21192;SDS011;10754;51.106;7.164;2022-08-11T05:01:26;3.92;;;1.70;;
21192;SDS011;10754;51.106;7.164;2022-08-11T05:13:09;2.90;;;1.67;;
21192;SDS011;10754;51.106;7.164;2022-08-11T05:15:55;3.05;;;1.80;;
21192;SDS011;10754;51.106;7.164;2022-08-11T05:18:49;4.22;;;2.03;;
21192;SDS011;10754;51.106;7.164;2022-08-11T05:21:35;2.40;;;1.58;;
21192;SDS011;10754;51.106;7.164;2022-08-11T05:24:31;4.18;;;2.10;;
21192;SDS011;10754;51.106;7.164;2022-08-11T05:27:35;3.38;;;1.80;;
21192;SDS011;10754;51.106;7.164;2022-08-11T05:30:43;3.67;;;1.85;;
21192;SDS011;10754;51.106;7.164;2022-08-11T05:33:44;2.63;;;1.55;;
21192;SDS011;10754;51.106;7.164;2022-08-11T05:36:45;4.88;;;1.90;;
21192;SDS011;10754;51.106;7.164;2022-08-11T05:39:20;2.88;;;1.65;;
21192;SDS011;10754;51.106;7.164;2022-08-11T05:42:09;2.13;;;1.70;;
21192;SDS011;10754;51.106;7.164;2022-08-11T05:44:56;4.70;;;1.80;;
21192;SDS011;10754;51.106;7.164;2022-08-11T05:47:46;2.80;;;1.95;;
21192;SDS011;10754;51.106;7.164;2022-08-11T05:50:32;1.63;;;1.52;;
21192;SDS011;10754;51.106;7.164;2022-08-11T05:53:17;2.22;;;1.70;;
21192;SDS011;10754;51.106;7.164;2022-08-11T05:56:03;4.32;;;2.00;;
21192;SDS011;10754;51.106;7.164;2022-08-11T05:58:48;3.85;;;1.67;;
21192;SDS011;10754;51.106;7.164;2022-08-11T06:01:34;2.38;;;1.60;;
21192;SDS011;10754;51.106;7.164;2022-08-11T06:04:04;3.88;;;1.92;;
21192;SDS011;10754;51.106;7.164;2022-08-11T06:06:47;3.80;;;1.80;;
21192;SDS011;10754;51.106;7.164;2022-08-11T06:09:23;3.38;;;1.50;;
21192;SDS011;10754;51.106;7.164;2022-08-11T06:11:51;2.65;;;1.65;;
21192;SDS011;10754;51.106;7.164;2022-08-11T06:14:21;3.17;;;1.60;;
21192;SDS011;10754;51.106;7.164;2022-08-11T06:16:48;2.22;;;1.60;;
21192;SDS011;10754;51.106;7.164;2022-08-11T06:19:17;3.70;;;1.80;;
21192;SDS011;10754;51.106;7.164;2022-08-11T06:21:47;6.18;;;2.10;;
21192;SDS011;10754;51.106;7.164;2022-08-11T06:24:14;2.95;;;1.42;;
21192;SDS011;10754;51.106;7.164;2022-08-11T06:26:40;2.30;;;1.65;;
21192;SDS011;10754;51.106;7.164;2022-08-11T06:29:12;2.28;;;1.70;;
21192;SDS011;10754;51.106;7.164;2022-08-11T06:31:42;3.47;;;1.70;;
21192;SDS011;10754;51.106;7.164;2022-08-11T06:34:23;1.73;;;1.45;;
21192;SDS011;10754;51.106;7.164;2022-08-11T06:37:04;2.63;;;1.92;;
21192;SDS011;10754;51.106;7.164;2022-08-11T06:40:08;3.75;;;1.80;;
21192;SDS011;10754;51.106;7.164;2022-08-11T06:42:42;2.50;;;1.65;;
21192;SDS011;10754;51.106;7.164;2022-08-11T06:45:36;3.25;;;1.50;;
21192;SDS011;10754;51.106;7.164;2022-08-11T06:48:15;3.55;;;2.13;;
21192;SDS011;10754;51.106;7.164;2022-08-11T06:50:46;3.17;;;1.70;;
21192;SDS011;10754;51.106;7.164;2022-08-11T06:53:37;3.38;;;1.48;;
21192;SDS011;10754;51.106;7.164;2022-08-11T06:56:09;3.78;;;1.98;;
21192;SDS011;10754;51.106;7.164;2022-08-11T06:58:55;2.65;;;1.50;;
21192;SDS011;10754;51.106;7.164;2022-08-11T07:02:28;6.95;;;1.77;;
21192;SDS011;10754;51.106;7.164;2022-08-11T07:04:40;4.63;;;2.40;;
21192;SDS011;10754;51.106;7.164;2022-08-11T07:13:09;3.55;;;1.70;;
21192;SDS011;10754;51.106;7.164;2022-08-11T07:15:56;2.10;;;1.65;;
21192;SDS011;10754;51.106;7.164;2022-08-11T07:18:27;1.80;;;1.63;;
21192;SDS011;10754;51.106;7.164;2022-08-11T07:21:26;6.32;;;1.85;;
21192;SDS011;10754;51.106;7.164;2022-08-11T07:24:15;2.55;;;1.77;;
21192;SDS011;10754;51.106;7.164;2022-08-11T07:27:07;3.83;;;1.88;;
21192;SDS011;10754;51.106;7.164;2022-08-11T07:29:55;7.97;;;1.67;;
21192;SDS011;10754;51.106;7.164;2022-08-11T07:32:27;3.25;;;1.75;;
21192;SDS011;10754;51.106;7.164;2022-08-11T07:35:16;3.35;;;1.60;;
21192;SDS011;10754;51.106;7.164;2022-08-11T07:37:52;1.95;;;1.67;;
21192;SDS011;10754;51.106;7.164;2022-08-11T07:40:22;3.30;;;1.55;;
21192;SDS011;10754;51.106;7.164;2022-08-11T07:42:48;3.47;;;1.73;;
21192;SDS011;10754;51.106;7.164;2022-08-11T07:45:16;1.73;;;1.38;;
21192;SDS011;10754;51.106;7.164;2022-08-11T07:48:00;2.20;;;1.70;;
21192;SDS011;10754;51.106;7.164;2022-08-11T07:50:45;2.90;;;1.55;;
21192;SDS011;10754;51.106;7.164;2022-08-11T07:53:29;3.20;;;1.77;;
21192;SDS011;10754;51.106;7.164;2022-08-11T07:55:57;5.63;;;1.60;;
21192;SDS011;10754;51.106;7.164;2022-08-11T07:58:24;2.28;;;1.65;;
21192;SDS011;10754;51.106;7.164;2022-08-11T08:01:10;4.65;;;1.77;;
21192;SDS011;10754;51.106;7.164;2022-08-11T08:03:55;4.18;;;1.88;;
21192;SDS011;10754;51.106;7.164;2022-08-11T08:06:41;3.75;;;1.73;;
21192;SDS011;10754;51.106;7.164;2022-08-11T08:09:27;4.32;;;1.83;;
21192;SDS011;10754;51.106;7.164;2022-08-11T08:12:11;3.20;;;1.67;;
21192;SDS011;10754;51.106;7.164;2022-08-11T08:14:57;2.67;;;1.70;;
21192;SDS011;10754;51.106;7.164;2022-08-11T08:17:41;1.70;;;1.50;;
21192;SDS011;10754;51.106;7.164;2022-08-11T08:20:18;2.60;;;1.73;;
21192;SDS011;10754;51.106;7.164;2022-08-11T08:22:49;3.10;;;1.50;;
21192;SDS011;10754;51.106;7.164;2022-08-11T08:25:26;4.07;;;1.90;;
21192;SDS011;10754;51.106;7.164;2022-08-11T08:27:54;2.03;;;1.30;;
21192;SDS011;10754;51.106;7.164;2022-08-11T08:30:21;4.15;;;1.70;;
21192;SDS011;10754;51.106;7.164;2022-08-11T08:33:08;2.45;;;1.40;;
21192;SDS011;10754;51.106;7.164;2022-08-11T08:35:36;2.28;;;1.52;;
21192;SDS011;10754;51.106;7.164;2022-08-11T08:38:01;1.50;;;1.40;;
21192;SDS011;10754;51.106;7.164;2022-08-11T08:40:28;5.80;;;1.70;;
21192;SDS011;10754;51.106;7.164;2022-08-11T08:42:55;4.15;;;1.45;;
21192;SDS011;10754;51.106;7.164;2022-08-11T08:45:23;3.33;;;1.67;;
21192;SDS011;10754;51.106;7.164;2022-08-11T08:47:58;5.32;;;1.60;;
21192;SDS011;10754;51.106;7.164;2022-08-11T08:50:26;1.70;;;1.55;;
21192;SDS011;10754;51.106;7.164;2022-08-11T08:53:14;1.85;;;1.33;;
21192;SDS011;10754;51.106;7.164;2022-08-11T08:55:45;2.22;;;1.52;;
21192;SDS011;10754;51.106;7.164;2022-08-11T08:58:12;4.70;;;1.50;;
21192;SDS011;10754;51.106;7.164;2022-08-11T09:00:40;3.95;;;1.30;;
21192;SDS011;10754;51.106;7.164;2022-08-11T09:03:08;2.55;;;1.48;;
21192;SDS011;10754;51.106;7.164;2022-08-11T09:05:34;4.97;;;1.70;;
21192;SDS011;10754;51.106;7.164;2022-08-11T09:08:01;2.10;;;1.50;;
21192;SDS011;10754;51.106;7.164;2022-08-11T09:10:27;1.95;;;1.60;;
21192;SDS011;10754;51.106;7.164;2022-08-11T09:12:54;2.95;;;1.40;;
21192;SDS011;10754;51.106;7.164;2022-08-11T09:15:21;1.98;;;1.50;;
21192;SDS011;10754;51.106;7.164;2022-08-11T09:17:49;1.73;;;1.40;;
21192;SDS011;10754;51.106;7.164;2022-08-11T09:20:26;2.67;;;1.45;;
21192;SDS011;10754;51.106;7.164;2022-08-11T09:22:57;5.72;;;1.77;;
21192;SDS011;10754;51.106;7.164;2022-08-11T09:25:44;1.92;;;1.40;;
21192;SDS011;10754;51.106;7.164;2022-08-11T09:28:29;1.95;;;1.27;;
21192;SDS011;10754;51.106;7.164;2022-08-11T09:30:55;5.53;;;1.60;;
21192;SDS011;10754;51.106;7.164;2022-08-11T09:33:25;3.53;;;1.50;;
21192;SDS011;10754;51.106;7.164;2022-08-11T09:35:52;4.22;;;1.42;;
21192;SDS011;10754;51.106;7.164;2022-08-11T09:38:18;3.03;;;1.20;;
21192;SDS011;10754;51.106;7.164;2022-08-11T09:41:07;3.08;;;1.50;;
21192;SDS011;10754;51.106;7.164;2022-08-11T09:43:38;2.97;;;1.27;;
21192;SDS011;10754;51.106;7.164;2022-08-11T09:46:26;3.08;;;1.40;;
21192;SDS011;10754;51.106;7.164;2022-08-11T09:48:53;2.17;;;1.52;;
21192;SDS011;10754;51.106;7.164;2022-08-11T09:51:23;2.20;;;1.73;;
21192;SDS011;10754;51.106;7.164;2022-08-11T09:53:49;2.38;;;1.38;;
21192;SDS011;10754;51.106;7.164;2022-08-11T09:56:15;3.65;;;1.67;;
21192;SDS011;10754;51.106;7.164;2022-08-11T09:59:01;2.55;;;1.63;;
21192;SDS011;10754;51.106;7.164;2022-08-11T10:01:38;2.65;;;1.52;;
21192;SDS011;10754;51.106;7.164;2022-08-11T10:04:13;1.48;;;1.38;;
21192;SDS011;10754;51.106;7.164;2022-08-11T10:06:40;3.15;;;1.52;;
21192;SDS011;10754;51.106;7.164;2022-08-11T10:09:26;4.63;;;1.70;;
21192;SDS011;10754;51.106;7.164;2022-08-11T10:12:25;2.00;;;1.30;;
21192;SDS011;10754;51.106;7.164;2022-08-11T10:14:57;2.35;;;1.48;;
21192;SDS011;10754;51.106;7.164;2022-08-11T10:17:47;3.15;;;1.50;;
21192;SDS011;10754;51.106;7.164;2022-08-11T10:20:35;1.98;;;1.63;;
21192;SDS011;10754;51.106;7.164;2022-08-11T10:23:03;2.65;;;1.60;;
21192;SDS011;10754;51.106;7.164;2022-08-11T10:25:48;1.38;;;1.27;;
21192;SDS011;10754;51.106;7.164;2022-08-11T10:28:36;2.67;;;1.48;;
21192;SDS011;10754;51.106;7.164;2022-08-11T10:31:05;2.35;;;1.35;;
21192;SDS011;10754;51.106;7.164;2022-08-11T10:33:49;3.83;;;1.77;;
21192;SDS011;10754;51.106;7.164;2022-08-11T10:36:30;2.45;;;1.55;;
21192;SDS011;10754;51.106;7.164;2022-08-11T10:38:59;9.73;;;1.65;;
21192;SDS011;10754;51.106;7.164;2022-08-11T10:41:28;2.75;;;1.42;;
21192;SDS011;10754;51.106;7.164;2022-08-11T10:44:14;2.58;;;1.58;;
21192;SDS011;10754;51.106;7.164;2022-08-11T10:46:40;4.97;;;1.70;;
21192;SDS011;10754;51.106;7.164;2022-08-11T10:49:25;1.77;;;1.35;;
21192;SDS011;10754;51.106;7.164;2022-08-11T10:51:52;2.15;;;1.55;;
21192;SDS011;10754;51.106;7.164;2022-08-11T10:54:38;2.47;;;1.50;;
21192;SDS011;10754;51.106;7.164;2022-08-11T10:57:25;2.20;;;1.40;;
21192;SDS011;10754;51.106;7.164;2022-08-11T11:00:12;3.28;;;1.52;;
21192;SDS011;10754;51.106;7.164;2022-08-11T11:02:39;3.63;;;1.50;;
21192;SDS011;10754;51.106;7.164;2022-08-11T11:05:11;2.15;;;1.20;;
21192;SDS011;10754;51.106;7.164;2022-08-11T11:07:48;2.38;;;1.30;;
21192;SDS011;10754;51.106;7.164;2022-08-11T11:10:21;2.53;;;1.27;;
21192;SDS011;10754;51.106;7.164;2022-08-11T11:12:50;3.00;;;1.63;;
21192;SDS011;10754;51.106;7.164;2022-08-11T11:15:37;2.55;;;1.55;;
21192;SDS011;10754;51.106;7.164;2022-08-11T11:18:27;2.97;;;1.10;;
21192;SDS011;10754;51.106;7.164;2022-08-11T11:21:02;1.80;;;1.50;;
21192;SDS011;10754;51.106;7.164;2022-08-11T11:23:33;3.08;;;1.70;;
21192;SDS011;10754;51.106;7.164;2022-08-11T11:26:42;1.73;;;1.30;;
21192;SDS011;10754;51.106;7.164;2022-08-11T11:29:40;1.92;;;1.45;;
21192;SDS011;10754;51.106;7.164;2022-08-11T11:32:30;3.65;;;1.60;;
21192;SDS011;10754;51.106;7.164;2022-08-11T11:37:39;2.00;;;1.40;;
21192;SDS011;10754;51.106;7.164;2022-08-11T11:40:10;2.65;;;1.30;;
21192;SDS011;10754;51.106;7.164;2022-08-11T11:42:41;3.15;;;1.50;;
21192;SDS011;10754;51.106;7.164;2022-08-11T11:45:09;3.35;;;1.35;;
21192;SDS011;10754;51.106;7.164;2022-08-11T11:47:38;1.52;;;1.40;;
21192;SDS011;10754;51.106;7.164;2022-08-11T11:50:05;2.45;;;1.75;;
21192;SDS011;10754;51.106;7.164;2022-08-11T11:52:32;3.25;;;1.30;;
21192;SDS011;10754;51.106;7.164;2022-08-11T11:54:59;4.07;;;1.50;;
21192;SDS011;10754;51.106;7.164;2022-08-11T11:57:26;3.53;;;1.40;;
21192;SDS011;10754;51.106;7.164;2022-08-11T12:00:11;4.00;;;1.33;;
21192;SDS011;10754;51.106;7.164;2022-08-11T12:02:59;3.92;;;1.40;;
21192;SDS011;10754;51.106;7.164;2022-08-11T12:05:26;2.97;;;1.20;;
21192;SDS011;10754;51.106;7.164;2022-08-11T12:07:53;3.33;;;1.42;;
21192;SDS011;10754;51.106;7.164;2022-08-11T12:10:43;4.05;;;1.77;;
21192;SDS011;10754;51.106;7.164;2022-08-11T12:13:12;5.38;;;1.42;;
21192;SDS011;10754;51.106;7.164;2022-08-11T12:15:57;4.13;;;1.73;;
21192;SDS011;10754;51.106;7.164;2022-08-11T12:18:27;2.08;;;1.17;;
21192;SDS011;10754;51.106;7.164;2022-08-11T12:21:00;2.08;;;1.63;;
21192;SDS011;10754;51.106;7.164;2022-08-11T12:23:26;2.40;;;1.63;;
21192;SDS011;10754;51.106;7.164;2022-08-11T12:26:14;3.17;;;1.73;;
21192;SDS011;10754;51.106;7.164;2022-08-11T12:29:00;1.92;;;1.20;;
21192;SDS011;10754;51.106;7.164;2022-08-11T12:31:29;4.20;;;1.30;;
21192;SDS011;10754;51.106;7.164;2022-08-11T12:34:09;4.75;;;1.40;;
21192;SDS011;10754;51.106;7.164;2022-08-11T12:36:40;2.35;;;1.27;;
21192;SDS011;10754;51.106;7.164;2022-08-11T12:39:12;4.90;;;1.40;;
21192;SDS011;10754;51.106;7.164;2022-08-11T12:41:44;6.05;;;1.38;;
21192;SDS011;10754;51.106;7.164;2022-08-11T12:44:29;2.97;;;1.63;;
21192;SDS011;10754;51.106;7.164;2022-08-11T12:47:18;3.08;;;1.20;;
21192;SDS011;10754;51.106;7.164;2022-08-11T12:49:47;2.03;;;1.48;;
21192;SDS011;10754;51.106;7.164;2022-08-11T12:52:36;1.40;;;1.20;;
21192;SDS011;10754;51.106;7.164;2022-08-11T12:55:14;3.25;;;1.30;;
21192;SDS011;10754;51.106;7.164;2022-08-11T12:58:04;2.38;;;1.55;;
21192;SDS011;10754;51.106;7.164;2022-08-11T13:00:45;1.58;;;1.40;;
21192;SDS011;10754;51.106;7.164;2022-08-11T13:03:30;2.50;;;1.48;;
21192;SDS011;10754;51.106;7.164;2022-08-11T13:06:17;4.30;;;1.50;;
21192;SDS011;10754;51.106;7.164;2022-08-11T13:08:44;1.85;;;1.30;;
21192;SDS011;10754;51.106;7.164;2022-08-11T13:11:11;9.95;;;2.28;;
21192;SDS011;10754;51.106;7.164;2022-08-11T13:13:58;2.63;;;1.40;;
21192;SDS011;10754;51.106;7.164;2022-08-11T13:16:26;2.60;;;1.60;;
21192;SDS011;10754;51.106;7.164;2022-08-11T13:18:57;1.30;;;1.17;;
21192;SDS011;10754;51.106;7.164;2022-08-11T13:21:24;3.58;;;1.48;;
21192;SDS011;10754;51.106;7.164;2022-08-11T13:23:52;2.17;;;1.33;;
21192;SDS011;10754;51.106;7.164;2022-08-11T13:26:21;1.55;;;1.30;;
21192;SDS011;10754;51.106;7.164;2022-08-11T13:28:48;2.78;;;1.50;;
21192;SDS011;10754;51.106;7.164;2022-08-11T13:31:15;2.58;;;1.23;;
21192;SDS011;10754;51.106;7.164;2022-08-11T13:33:42;5.70;;;1.55;;
21192;SDS011;10754;51.106;7.164;2022-08-11T13:36:11;2.72;;;1.35;;
21192;SDS011;10754;51.106;7.164;2022-08-11T13:38:40;3.03;;;1.40;;
21192;SDS011;10754;51.106;7.164;2022-08-11T13:41:07;1.95;;;1.42;;
21192;SDS011;10754;51.106;7.164;2022-08-11T13:43:54;4.18;;;1.42;;
21192;SDS011;10754;51.106;7.164;2022-08-11T13:46:20;3.53;;;1.42;;
21192;SDS011;10754;51.106;7.164;2022-08-11T13:48:48;1.80;;;1.17;;
21192;SDS011;10754;51.106;7.164;2022-08-11T13:51:18;4.78;;;1.63;;
21192;SDS011;10754;51.106;7.164;2022-08-11T13:54:01;3.60;;;1.52;;
21192;SDS011;10754;51.106;7.164;2022-08-11T13:56:32;2.95;;;1.70;;
21192;SDS011;10754;51.106;7.164;2022-08-11T13:58:59;2.85;;;1.27;;
21192;SDS011;10754;51.106;7.164;2022-08-11T14:01:31;6.43;;;1.48;;
21192;SDS011;10754;51.106;7.164;2022-08-11T14:04:02;2.40;;;1.50;;
21192;SDS011;10754;51.106;7.164;2022-08-11T14:06:32;3.50;;;1.30;;
21192;SDS011;10754;51.106;7.164;2022-08-11T14:09:00;3.83;;;1.40;;
21192;SDS011;10754;51.106;7.164;2022-08-11T14:11:28;2.58;;;1.42;;
21192;SDS011;10754;51.106;7.164;2022-08-11T14:14:15;1.52;;;1.15;;
21192;SDS011;10754;51.106;7.164;2022-08-11T14:16:45;2.70;;;1.25;;
21192;SDS011;10754;51.106;7.164;2022-08-11T14:19:12;2.45;;;1.70;;
21192;SDS011;10754;51.106;7.164;2022-08-11T14:21:40;3.50;;;1.50;;
21192;SDS011;10754;51.106;7.164;2022-08-11T14:24:26;3.80;;;1.33;;
21192;SDS011;10754;51.106;7.164;2022-08-11T14:26:53;2.55;;;1.33;;
21192;SDS011;10754;51.106;7.164;2022-08-11T14:29:19;1.67;;;1.33;;
21192;SDS011;10754;51.106;7.164;2022-08-11T14:31:48;1.67;;;1.25;;
21192;SDS011;10754;51.106;7.164;2022-08-11T14:34:17;1.52;;;1.40;;
21192;SDS011;10754;51.106;7.164;2022-08-11T14:36:46;4.65;;;1.45;;
21192;SDS011;10754;51.106;7.164;2022-08-11T14:39:17;5.82;;;1.40;;
21192;SDS011;10754;51.106;7.164;2022-08-11T14:41:47;2.78;;;1.50;;
21192;SDS011;10754;51.106;7.164;2022-08-11T14:44:36;4.85;;;1.80;;
21192;SDS011;10754;51.106;7.164;2022-08-11T14:47:22;4.85;;;1.30;;
21192;SDS011;10754;51.106;7.164;2022-08-11T14:49:49;2.72;;;1.38;;
21192;SDS011;10754;51.106;7.164;2022-08-11T14:52:17;3.00;;;1.63;;
21192;SDS011;10754;51.106;7.164;2022-08-11T14:54:45;2.47;;;1.30;;
21192;SDS011;10754;51.106;7.164;2022-08-11T14:57:32;3.53;;;1.40;;
21192;SDS011;10754;51.106;7.164;2022-08-11T15:00:02;1.60;;;1.40;;
21192;SDS011;10754;51.106;7.164;2022-08-11T15:02:30;2.38;;;1.60;;
21192;SDS011;10754;51.106;7.164;2022-08-11T15:05:19;2.03;;;1.63;;
21192;SDS011;10754;51.106;7.164;2022-08-11T15:07:45;2.20;;;1.60;;
21192;SDS011;10754;51.106;7.164;2022-08-11T15:10:11;3.03;;;1.60;;
21192;SDS011;10754;51.106;7.164;2022-08-11T15:12:38;1.88;;;1.20;;
21192;SDS011;10754;51.106;7.164;2022-08-11T15:15:06;2.35;;;1.60;;
21192;SDS011;10754;51.106;7.164;2022-08-11T15:17:52;4.00;;;1.50;;
21192;SDS011;10754;51.106;7.164;2022-08-11T15:20:19;4.30;;;1.50;;
21192;SDS011;10754;51.106;7.164;2022-08-11T15:23:04;3.15;;;1.58;;
21192;SDS011;10754;51.106;7.164;2022-08-11T15:25:49;3.72;;;1.65;;
21192;SDS011;10754;51.106;7.164;2022-08-11T15:28:19;3.28;;;1.58;;
21192;SDS011;10754;51.106;7.164;2022-08-11T15:31:05;3.00;;;1.55;;
21192;SDS011;10754;51.106;7.164;2022-08-11T15:33:50;4.00;;;1.60;;
21192;SDS011;10754;51.106;7.164;2022-08-11T15:36:38;2.55;;;1.40;;
21192;SDS011;10754;51.106;7.164;2022-08-11T15:39:30;2.30;;;1.60;;
21192;SDS011;10754;51.106;7.164;2022-08-11T15:42:01;4.47;;;1.80;;
21192;SDS011;10754;51.106;7.164;2022-08-11T15:44:55;1.67;;;1.50;;
21192;SDS011;10754;51.106;7.164;2022-08-11T15:47:54;4.15;;;1.58;;
21192;SDS011;10754;51.106;7.164;2022-08-11T15:50:24;1.83;;;1.45;;
21192;SDS011;10754;51.106;7.164;2022-08-11T15:52:55;2.53;;;1.90;;
21192;SDS011;10754;51.106;7.164;2022-08-11T15:55:23;3.40;;;1.85;;
21192;SDS011;10754;51.106;7.164;2022-08-11T15:57:49;4.20;;;1.48;;
21192;SDS011;10754;51.106;7.164;2022-08-11T16:00:36;1.80;;;1.55;;
21192;SDS011;10754;51.106;7.164;2022-08-11T16:03:23;2.22;;;1.48;;
21192;SDS011;10754;51.106;7.164;2022-08-11T16:06:09;3.22;;;1.40;;
21192;SDS011;10754;51.106;7.164;2022-08-11T16:08:37;1.90;;;1.48;;
21192;SDS011;10754;51.106;7.164;2022-08-11T16:11:06;2.97;;;1.65;;
21192;SDS011;10754;51.106;7.164;2022-08-11T16:13:33;2.97;;;1.38;;
21192;SDS011;10754;51.106;7.164;2022-08-11T16:16:02;3.63;;;1.67;;
21192;SDS011;10754;51.106;7.164;2022-08-11T16:18:52;2.35;;;1.38;;
21192;SDS011;10754;51.106;7.164;2022-08-11T16:21:25;2.75;;;1.30;;
21192;SDS011;10754;51.106;7.164;2022-08-11T16:23:54;1.83;;;1.58;;
21192;SDS011;10754;51.106;7.164;2022-08-11T16:26:23;1.67;;;1.50;;
21192;SDS011;10754;51.106;7.164;2022-08-11T16:28:51;3.00;;;1.52;;
21192;SDS011;10754;51.106;7.164;2022-08-11T16:31:19;3.53;;;1.45;;
21192;SDS011;10754;51.106;7.164;2022-08-11T16:33:46;3.60;;;1.50;;
21192;SDS011;10754;51.106;7.164;2022-08-11T16:36:13;3.65;;;1.42;;
21192;SDS011;10754;51.106;7.164;2022-08-11T16:38:59;2.00;;;1.35;;
21192;SDS011;10754;51.106;7.164;2022-08-11T16:41:27;2.55;;;1.40;;
21192;SDS011;10754;51.106;7.164;2022-08-11T16:44:13;4.05;;;1.58;;
21192;SDS011;10754;51.106;7.164;2022-08-11T16:47:00;3.80;;;1.45;;
21192;SDS011;10754;51.106;7.164;2022-08-11T16:49:31;1.95;;;1.55;;
21192;SDS011;10754;51.106;7.164;2022-08-11T16:52:03;2.17;;;1.73;;
21192;SDS011;10754;51.106;7.164;2022-08-11T16:54:32;1.75;;;1.48;;
21192;SDS011;10754;51.106;7.164;2022-08-11T16:56:59;2.05;;;1.58;;
21192;SDS011;10754;51.106;7.164;2022-08-11T16:59:50;1.50;;;1.38;;
21192;SDS011;10754;51.106;7.164;2022-08-11T17:02:17;3.08;;;1.58;;
21192;SDS011;10754;51.106;7.164;2022-08-11T17:05:10;1.70;;;1.60;;
21192;SDS011;10754;51.106;7.164;2022-08-11T17:08:02;2.35;;;1.75;;
21192;SDS011;10754;51.106;7.164;2022-08-11T17:10:51;6.25;;;1.73;;
21192;SDS011;10754;51.106;7.164;2022-08-11T17:14:00;4.80;;;1.70;;
21192;SDS011;10754;51.106;7.164;2022-08-11T17:16:37;2.75;;;1.40;;
21192;SDS011;10754;51.106;7.164;2022-08-11T17:19:11;3.20;;;1.63;;
21192;SDS011;10754;51.106;7.164;2022-08-11T17:21:42;2.15;;;1.45;;
21192;SDS011;10754;51.106;7.164;2022-08-11T17:24:28;6.30;;;1.63;;
21192;SDS011;10754;51.106;7.164;2022-08-11T17:26:57;5.20;;;1.70;;
21192;SDS011;10754;51.106;7.164;2022-08-11T17:29:25;3.10;;;1.88;;
21192;SDS011;10754;51.106;7.164;2022-08-11T17:31:54;2.22;;;1.27;;
21192;SDS011;10754;51.106;7.164;2022-08-11T17:34:41;2.67;;;1.67;;
21192;SDS011;10754;51.106;7.164;2022-08-11T17:37:27;2.38;;;1.50;;
21192;SDS011;10754;51.106;7.164;2022-08-11T17:39:55;4.63;;;1.90;;
21192;SDS011;10754;51.106;7.164;2022-08-11T17:42:22;4.40;;;1.95;;
21192;SDS011;10754;51.106;7.164;2022-08-11T17:45:09;2.95;;;1.65;;
21192;SDS011;10754;51.106;7.164;2022-08-11T17:47:54;6.60;;;1.95;;
21192;SDS011;10754;51.106;7.164;2022-08-11T17:50:40;3.45;;;1.67;;
21192;SDS011;10754;51.106;7.164;2022-08-11T17:53:06;2.80;;;1.63;;
21192;SDS011;10754;51.106;7.164;2022-08-11T17:55:51;4.75;;;1.90;;
21192;SDS011;10754;51.106;7.164;2022-08-11T17:58:37;2.75;;;1.90;;
21192;SDS011;10754;51.106;7.164;2022-08-11T18:01:24;4.80;;;1.92;;
21192;SDS011;10754;51.106;7.164;2022-08-11T18:03:50;5.47;;;1.95;;
21192;SDS011;10754;51.106;7.164;2022-08-11T18:06:19;5.88;;;2.80;;
21192;SDS011;10754;51.106;7.164;2022-08-11T18:08:46;3.28;;;2.60;;
21192;SDS011;10754;51.106;7.164;2022-08-11T18:11:32;2.83;;;2.58;;
21192;SDS011;10754;51.106;7.164;2022-08-11T18:14:19;2.63;;;2.10;;
21192;SDS011;10754;51.106;7.164;2022-08-11T18:17:05;2.28;;;1.90;;
21192;SDS011;10754;51.106;7.164;2022-08-11T18:19:49;4.03;;;1.73;;
21192;SDS011;10754;51.106;7.164;2022-08-11T18:22:37;3.88;;;2.17;;
21192;SDS011;10754;51.106;7.164;2022-08-11T18:25:26;4.03;;;2.00;;
21192;SDS011;10754;51.106;7.164;2022-08-11T18:28:15;8.65;;;2.03;;
21192;SDS011;10754;51.106;7.164;2022-08-11T18:31:04;3.78;;;2.05;;
21192;SDS011;10754;51.106;7.164;2022-08-11T18:33:51;4.03;;;1.85;;
21192;SDS011;10754;51.106;7.164;2022-08-11T18:36:42;3.38;;;2.05;;
21192;SDS011;10754;51.106;7.164;2022-08-11T18:39:33;5.38;;;2.03;;
21192;SDS011;10754;51.106;7.164;2022-08-11T18:42:24;3.05;;;1.90;;
21192;SDS011;10754;51.106;7.164;2022-08-11T18:45:13;4.28;;;1.92;;
21192;SDS011;10754;51.106;7.164;2022-08-11T18:48:00;3.53;;;1.98;;
21192;SDS011;10754;51.106;7.164;2022-08-11T18:50:48;3.95;;;1.90;;
21192;SDS011;10754;51.106;7.164;2022-08-11T18:53:35;3.60;;;1.80;;
21192;SDS011;10754;51.106;7.164;2022-08-11T18:56:23;2.47;;;1.75;;
21192;SDS011;10754;51.106;7.164;2022-08-11T18:59:09;2.60;;;2.00;;
21192;SDS011;10754;51.106;7.164;2022-08-11T19:01:56;3.45;;;2.10;;
21192;SDS011;10754;51.106;7.164;2022-08-11T19:04:41;4.13;;;2.08;;
21192;SDS011;10754;51.106;7.164;2022-08-11T19:07:27;4.88;;;1.85;;
21192;SDS011;10754;51.106;7.164;2022-08-11T19:10:12;2.50;;;2.03;;
21192;SDS011;10754;51.106;7.164;2022-08-11T19:12:58;5.53;;;2.00;;
21192;SDS011;10754;51.106;7.164;2022-08-11T19:15:44;3.97;;;1.70;;
21192;SDS011;10754;51.106;7.164;2022-08-11T19:18:29;1.92;;;1.70;;
21192;SDS011;10754;51.106;7.164;2022-08-11T19:21:16;3.05;;;1.92;;
21192;SDS011;10754;51.106;7.164;2022-08-11T19:24:02;7.03;;;2.17;;
21192;SDS011;10754;51.106;7.164;2022-08-11T19:26:49;3.85;;;2.00;;
21192;SDS011;10754;51.106;7.164;2022-08-11T19:29:37;3.83;;;1.85;;
21192;SDS011;10754;51.106;7.164;2022-08-11T19:32:24;2.10;;;2.00;;
21192;SDS011;10754;51.106;7.164;2022-08-11T19:35:10;2.88;;;1.90;;
21192;SDS011;10754;51.106;7.164;2022-08-11T19:37:54;2.17;;;1.70;;